ΕΜΥ, Εθνική Μετεωρολογική Υπηρεσία - Δελτία Καιρού, Προγνώσεις

ΑΕΡΟΝΑΥΤΙΛΙΑ

GREEK AIRPORTS CODES

LGNX 170950Z 35007KT CAVOK 27/14 Q1016=

EUROPEAN AIRPORTS CODES

LFPO 171000Z 15005KT 100V200 9999 FEW031 21/13 Q1016 NOSIG=